createdAt,value
2018-12-11T00:00:31.023Z,0.00
2018-12-11T00:01:30.995Z,0.00
2018-12-11T00:02:30.985Z,0.00
2018-12-11T00:03:30.974Z,0.00
2018-12-11T00:04:30.963Z,0.00
2018-12-11T00:05:30.951Z,0.00
2018-12-11T00:06:30.946Z,0.00
2018-12-11T00:07:30.932Z,0.00
2018-12-11T00:08:30.920Z,0.00
2018-12-11T00:09:30.909Z,0.00
2018-12-11T00:10:30.899Z,0.00
2018-12-11T00:11:34.009Z,0.00
2018-12-11T00:12:30.876Z,0.00
2018-12-11T00:13:30.935Z,0.00
2018-12-11T00:14:30.857Z,0.00
2018-12-11T00:15:30.847Z,0.00
2018-12-11T00:16:30.834Z,0.00
2018-12-11T00:17:30.823Z,0.00
2018-12-11T00:18:30.813Z,0.00
2018-12-11T00:19:30.803Z,0.00
2018-12-11T00:20:30.793Z,0.00
2018-12-11T00:21:30.781Z,0.00
2018-12-11T00:22:30.774Z,0.00
2018-12-11T00:23:30.759Z,0.00
2018-12-11T00:24:30.748Z,0.00
2018-12-11T00:25:30.742Z,0.00
2018-12-11T00:26:30.728Z,0.00
2018-12-11T00:27:30.715Z,0.00
2018-12-11T00:28:30.706Z,0.00
2018-12-11T00:29:30.699Z,0.00
2018-12-11T00:30:30.686Z,0.00
2018-12-11T00:31:30.673Z,0.00
2018-12-11T00:32:30.662Z,0.00
2018-12-11T00:33:30.655Z,0.00
2018-12-11T00:34:30.705Z,0.00
2018-12-11T00:35:30.632Z,0.00
2018-12-11T00:36:30.619Z,0.00
2018-12-11T00:37:30.610Z,0.00
2018-12-11T00:38:30.598Z,0.00
2018-12-11T00:39:30.587Z,0.00
2018-12-11T00:40:30.578Z,0.00
2018-12-11T00:41:30.566Z,0.00
2018-12-11T00:42:30.562Z,0.00
2018-12-11T00:43:30.545Z,0.00
2018-12-11T00:44:30.534Z,0.00
2018-12-11T00:45:30.522Z,0.00
2018-12-11T00:46:30.513Z,0.00
2018-12-11T00:47:30.505Z,0.00
2018-12-11T00:48:30.491Z,0.00
2018-12-11T00:49:30.481Z,0.00
2018-12-11T00:50:30.469Z,0.00
2018-12-11T00:51:30.462Z,0.00
2018-12-11T00:52:30.454Z,0.00
2018-12-11T00:53:30.439Z,0.00
2018-12-11T00:54:30.430Z,0.00
2018-12-11T00:55:30.418Z,0.00
2018-12-11T00:56:30.409Z,0.00
2018-12-11T00:57:30.395Z,0.00
2018-12-11T00:58:30.383Z,0.00
2018-12-11T00:59:30.373Z,0.00
2018-12-11T01:00:30.362Z,0.00
2018-12-11T01:01:30.352Z,0.00
2018-12-11T01:02:30.342Z,0.00
2018-12-11T01:03:30.335Z,0.00
2018-12-11T01:04:30.323Z,0.00
2018-12-11T01:05:30.311Z,0.00
2018-12-11T01:06:30.299Z,0.00
2018-12-11T01:07:30.290Z,0.00
2018-12-11T01:08:30.277Z,0.00
2018-12-11T01:09:30.270Z,0.00
2018-12-11T01:10:30.256Z,0.00
2018-12-11T01:11:30.245Z,0.00
2018-12-11T01:12:30.234Z,0.00
2018-12-11T01:13:30.227Z,0.00
2018-12-11T01:14:30.212Z,0.00
2018-12-11T01:15:30.204Z,0.00
2018-12-11T01:16:30.192Z,0.00
2018-12-11T01:17:30.180Z,0.00
2018-12-11T01:18:30.170Z,0.00
2018-12-11T01:19:30.162Z,0.00
2018-12-11T01:20:30.149Z,0.00
2018-12-11T01:21:30.140Z,0.00
2018-12-11T01:22:30.127Z,0.00
2018-12-11T01:23:30.117Z,0.00
2018-12-11T01:24:30.107Z,0.00
2018-12-11T01:25:30.097Z,0.00
2018-12-11T01:26:30.097Z,0.00
2018-12-11T01:27:30.075Z,0.00
2018-12-11T01:28:30.063Z,0.00
2018-12-11T01:29:30.051Z,0.00
2018-12-11T01:30:30.041Z,0.00
2018-12-11T01:31:30.035Z,0.00
2018-12-11T01:32:30.024Z,0.00
2018-12-11T01:33:30.008Z,0.00
2018-12-11T01:34:30.001Z,0.00
2018-12-11T01:35:29.987Z,0.00
2018-12-11T01:36:29.976Z,0.00
2018-12-11T01:37:29.970Z,0.00
2018-12-11T01:38:29.954Z,0.00
2018-12-11T01:39:29.944Z,0.00
2018-12-11T01:40:29.996Z,0.00
2018-12-11T01:41:29.923Z,0.00
2018-12-11T01:42:29.913Z,0.00
2018-12-11T01:43:29.902Z,0.00
2018-12-11T01:44:29.894Z,0.00
2018-12-11T01:45:29.880Z,0.00
2018-12-11T01:46:29.871Z,0.00
2018-12-11T01:47:29.858Z,0.00
2018-12-11T01:48:29.848Z,0.00
2018-12-11T01:49:29.837Z,0.00
2018-12-11T01:50:29.827Z,0.00
2018-12-11T01:51:29.816Z,0.00
2018-12-11T01:52:29.807Z,0.00
2018-12-11T01:53:29.795Z,0.00
2018-12-11T01:54:29.787Z,0.00
2018-12-11T01:55:29.776Z,0.00
2018-12-11T01:56:29.762Z,0.00
2018-12-11T01:57:29.751Z,0.00
2018-12-11T01:58:29.740Z,0.00
2018-12-11T01:59:29.729Z,0.00
2018-12-11T02:00:29.719Z,0.00
2018-12-11T02:01:29.709Z,0.00
2018-12-11T02:02:29.697Z,0.00
2018-12-11T02:03:29.687Z,0.00
2018-12-11T02:04:29.679Z,0.00
2018-12-11T02:05:29.666Z,0.00
2018-12-11T02:06:29.656Z,0.00
2018-12-11T02:07:29.646Z,0.00
2018-12-11T02:08:29.635Z,0.00
2018-12-11T02:09:29.623Z,0.00
2018-12-11T02:10:29.614Z,0.00
2018-12-11T02:11:29.602Z,0.00
2018-12-11T02:12:29.591Z,0.00
2018-12-11T02:13:29.581Z,0.00
2018-12-11T02:14:29.571Z,0.00
2018-12-11T02:15:29.559Z,0.00
2018-12-11T02:16:29.550Z,0.00
2018-12-11T02:17:29.537Z,0.00
2018-12-11T02:18:29.528Z,0.00
2018-12-11T02:19:29.517Z,0.00
2018-12-11T02:20:29.507Z,0.00
2018-12-11T02:21:30.461Z,0.00
2018-12-11T02:22:29.484Z,0.00
2018-12-11T02:23:29.476Z,0.00
2018-12-11T02:24:29.467Z,0.00
2018-12-11T02:25:29.454Z,0.00
2018-12-11T02:26:29.441Z,0.00
2018-12-11T02:27:29.432Z,0.00
2018-12-11T02:28:29.421Z,0.00
2018-12-11T02:29:29.410Z,0.00
2018-12-11T02:30:29.400Z,0.00
2018-12-11T02:31:29.389Z,0.00
2018-12-11T02:32:29.378Z,0.00
2018-12-11T02:33:29.367Z,0.00
2018-12-11T02:34:29.360Z,0.00
2018-12-11T02:35:29.357Z,0.00
2018-12-11T02:36:29.337Z,0.00
2018-12-11T02:37:29.326Z,0.00
2018-12-11T02:38:29.313Z,0.00
2018-12-11T02:39:29.302Z,0.00
2018-12-11T02:40:29.293Z,0.00
2018-12-11T02:41:29.283Z,0.00
2018-12-11T02:42:29.271Z,0.00
2018-12-11T02:43:29.261Z,0.00
2018-12-11T02:44:29.248Z,0.00
2018-12-11T02:45:29.238Z,0.00
2018-12-11T02:46:29.229Z,0.00
2018-12-11T02:47:29.220Z,0.00
2018-12-11T02:48:29.209Z,0.00
2018-12-11T02:49:29.197Z,0.00
2018-12-11T02:50:29.186Z,0.00
2018-12-11T02:51:29.176Z,0.00
2018-12-11T02:52:29.166Z,0.00
2018-12-11T02:53:29.154Z,0.00
2018-12-11T02:54:29.143Z,0.00
2018-12-11T02:55:29.133Z,0.00
2018-12-11T02:56:29.122Z,0.00
2018-12-11T02:57:29.111Z,0.00
2018-12-11T02:58:29.104Z,0.00
2018-12-11T02:59:29.092Z,0.00
2018-12-11T03:00:29.081Z,0.00
2018-12-11T03:01:29.067Z,0.00
2018-12-11T03:02:29.057Z,0.00
2018-12-11T03:03:29.045Z,0.00
2018-12-11T03:04:29.036Z,0.00
2018-12-11T03:05:29.027Z,0.00
2018-12-11T03:06:29.014Z,0.00
2018-12-11T03:07:29.005Z,0.00
2018-12-11T03:08:28.992Z,0.00
2018-12-11T03:09:28.981Z,0.00
2018-12-11T03:10:28.979Z,0.00
2018-12-11T03:11:28.962Z,0.00
2018-12-11T03:12:28.951Z,0.00
2018-12-11T03:13:28.938Z,0.00
2018-12-11T03:14:28.928Z,0.00
2018-12-11T03:15:28.918Z,0.00
2018-12-11T03:16:28.908Z,0.00
2018-12-11T03:17:28.895Z,0.00
2018-12-11T03:18:28.887Z,0.00
2018-12-11T03:19:28.875Z,0.00
2018-12-11T03:20:28.864Z,0.00
2018-12-11T03:21:28.855Z,0.00
2018-12-11T03:22:28.848Z,0.00
2018-12-11T03:23:28.833Z,0.00
2018-12-11T03:24:28.821Z,0.00
2018-12-11T03:25:28.813Z,0.00
2018-12-11T03:26:28.827Z,0.00
2018-12-11T03:27:28.791Z,0.00
2018-12-11T03:28:28.781Z,0.00
2018-12-11T03:29:28.770Z,0.00
2018-12-11T03:30:28.758Z,0.00
2018-12-11T03:31:28.747Z,0.00
2018-12-11T03:32:28.736Z,0.00
2018-12-11T03:33:28.727Z,0.00
2018-12-11T03:34:28.715Z,0.00
2018-12-11T03:35:28.704Z,0.00
2018-12-11T03:36:28.691Z,0.00
2018-12-11T03:37:28.683Z,0.00
2018-12-11T03:38:28.675Z,0.00
2018-12-11T03:39:28.662Z,0.00
2018-12-11T03:40:28.651Z,0.00
2018-12-11T03:41:28.638Z,0.00
2018-12-11T03:42:28.629Z,0.00
2018-12-11T03:43:28.617Z,0.00
2018-12-11T03:44:28.607Z,0.00
2018-12-11T03:45:28.597Z,0.00
2018-12-11T03:46:28.586Z,0.00
2018-12-11T03:47:28.574Z,0.00
2018-12-11T03:48:28.564Z,0.00
2018-12-11T03:49:28.552Z,0.00
2018-12-11T03:50:28.546Z,0.00
2018-12-11T03:51:28.536Z,0.00
2018-12-11T03:52:28.521Z,0.00
2018-12-11T03:53:28.510Z,0.00
2018-12-11T03:54:28.500Z,0.00
2018-12-11T03:55:28.489Z,0.00
2018-12-11T03:56:28.482Z,0.00
2018-12-11T03:57:28.468Z,0.00
2018-12-11T03:58:28.457Z,0.00
2018-12-11T03:59:28.451Z,0.00
2018-12-11T04:00:28.434Z,0.00
2018-12-11T04:01:28.425Z,0.00
2018-12-11T04:02:28.414Z,0.00
2018-12-11T04:03:28.403Z,0.00
2018-12-11T04:04:28.397Z,0.00
2018-12-11T04:05:28.381Z,0.00
2018-12-11T04:06:28.371Z,0.00
2018-12-11T04:07:28.361Z,0.00
2018-12-11T04:08:28.350Z,0.00
2018-12-11T04:09:28.339Z,0.00
2018-12-11T04:10:28.327Z,0.00
2018-12-11T04:11:28.318Z,0.00
2018-12-11T04:12:28.307Z,0.00
2018-12-11T04:13:28.299Z,0.00
2018-12-11T04:14:28.289Z,0.00
2018-12-11T04:15:28.273Z,0.00
2018-12-11T04:16:28.262Z,0.00
2018-12-11T04:17:28.255Z,0.00
2018-12-11T04:18:28.245Z,0.00
2018-12-11T04:19:28.233Z,0.00
2018-12-11T04:20:28.222Z,0.00
2018-12-11T04:21:28.210Z,0.00
2018-12-11T04:22:28.200Z,0.00
2018-12-11T04:23:28.190Z,0.00
2018-12-11T04:24:28.179Z,0.00
2018-12-11T04:25:28.167Z,0.00
2018-12-11T04:26:28.158Z,0.00
2018-12-11T04:27:28.146Z,0.00
2018-12-11T04:28:28.136Z,0.00
2018-12-11T04:29:28.126Z,0.00
2018-12-11T04:30:28.113Z,0.00
2018-12-11T04:31:28.104Z,0.00
2018-12-11T04:32:28.092Z,0.00
2018-12-11T04:33:28.081Z,0.00
2018-12-11T04:34:28.077Z,0.00
2018-12-11T04:35:28.061Z,0.00
2018-12-11T04:36:28.056Z,0.00
2018-12-11T04:37:28.038Z,0.00
2018-12-11T04:38:28.026Z,0.00
2018-12-11T04:39:33.628Z,0.00
2018-12-11T04:40:29.006Z,0.00
2018-12-11T04:41:27.997Z,0.00
2018-12-11T04:42:27.985Z,0.00
2018-12-11T04:43:27.976Z,0.00
2018-12-11T04:44:27.964Z,0.00
2018-12-11T04:45:27.952Z,0.00
2018-12-11T04:46:27.942Z,0.00
2018-12-11T04:47:27.931Z,0.00
2018-12-11T04:48:27.920Z,0.00
2018-12-11T04:49:27.910Z,0.00
2018-12-11T04:50:27.900Z,0.00
2018-12-11T04:51:27.888Z,0.00
2018-12-11T04:52:27.878Z,0.00
2018-12-11T04:53:27.867Z,0.00
2018-12-11T04:54:27.857Z,0.00
2018-12-11T04:55:27.845Z,0.00
2018-12-11T04:56:27.834Z,0.00
2018-12-11T04:57:27.824Z,0.00
2018-12-11T04:58:27.814Z,0.00
2018-12-11T04:59:27.802Z,0.00
2018-12-11T05:00:27.793Z,0.00
2018-12-11T05:01:27.781Z,0.00
2018-12-11T05:02:27.771Z,0.00
2018-12-11T05:03:27.759Z,0.00
2018-12-11T05:04:27.750Z,0.00
2018-12-11T05:05:27.738Z,0.00
2018-12-11T05:06:27.733Z,0.00
2018-12-11T05:07:27.717Z,0.00
2018-12-11T05:08:27.707Z,0.00
2018-12-11T05:09:27.695Z,0.00
2018-12-11T05:10:27.684Z,0.00
2018-12-11T05:11:27.675Z,0.00
2018-12-11T05:12:27.662Z,0.00
2018-12-11T05:13:27.653Z,0.00
2018-12-11T05:14:27.641Z,0.00
2018-12-11T05:15:27.631Z,0.00
2018-12-11T05:16:27.621Z,0.00
2018-12-11T05:17:27.609Z,0.00
2018-12-11T05:18:27.599Z,0.00
2018-12-11T05:19:27.591Z,0.00
2018-12-11T05:20:27.578Z,0.00
2018-12-11T05:21:27.569Z,0.00
2018-12-11T05:22:27.557Z,0.00
2018-12-11T05:23:27.545Z,0.00
2018-12-11T05:24:27.535Z,0.00
2018-12-11T05:25:27.524Z,0.00
2018-12-11T05:26:27.516Z,0.00
2018-12-11T05:27:27.504Z,0.00
2018-12-11T05:28:27.493Z,0.00
2018-12-11T05:29:27.480Z,0.00
2018-12-11T05:30:27.471Z,0.00
2018-12-11T05:31:27.461Z,0.00
2018-12-11T05:32:27.450Z,0.00
2018-12-11T05:33:27.439Z,0.00
2018-12-11T05:34:27.427Z,0.00
2018-12-11T05:35:27.417Z,0.00
2018-12-11T05:36:27.407Z,0.00
2018-12-11T05:37:27.397Z,0.00
2018-12-11T05:38:27.391Z,0.00
2018-12-11T05:39:27.375Z,0.00
2018-12-11T05:40:27.363Z,0.00
2018-12-11T05:41:27.352Z,0.00
2018-12-11T05:42:27.388Z,0.00
2018-12-11T05:43:27.332Z,0.00
2018-12-11T05:44:27.322Z,0.00
2018-12-11T05:45:27.310Z,0.00
2018-12-11T05:46:27.299Z,0.00
2018-12-11T05:47:27.291Z,0.00
2018-12-11T05:48:27.279Z,0.00
2018-12-11T05:49:27.267Z,0.00
2018-12-11T05:50:27.257Z,0.00
2018-12-11T05:51:27.259Z,0.00
2018-12-11T05:52:27.235Z,0.00
2018-12-11T05:53:27.224Z,0.00
2018-12-11T05:54:27.215Z,0.00
2018-12-11T05:55:27.203Z,0.00
2018-12-11T05:56:27.193Z,0.00
2018-12-11T05:57:27.182Z,0.00
2018-12-11T05:58:27.174Z,0.00
2018-12-11T05:59:27.163Z,0.00
2018-12-11T06:00:27.149Z,0.00
2018-12-11T06:01:27.156Z,0.00
2018-12-11T06:02:27.127Z,0.00
2018-12-11T06:03:27.119Z,0.00
2018-12-11T06:04:27.108Z,0.00
2018-12-11T06:05:27.101Z,0.00
2018-12-11T06:06:27.085Z,0.00
2018-12-11T06:07:27.074Z,0.00
2018-12-11T06:08:27.068Z,0.00
2018-12-11T06:09:27.053Z,0.00
2018-12-11T06:10:27.042Z,0.00
2018-12-11T06:11:27.036Z,0.00
2018-12-11T06:12:27.021Z,0.00
2018-12-11T06:13:27.011Z,0.00
2018-12-11T06:14:27.004Z,0.00
2018-12-11T06:15:26.989Z,0.00
2018-12-11T06:16:27.060Z,0.00
2018-12-11T06:17:26.969Z,0.00
2018-12-11T06:18:26.958Z,0.00
2018-12-11T06:19:26.946Z,0.00
2018-12-11T06:20:26.936Z,0.00
2018-12-11T06:21:26.925Z,0.00
2018-12-11T06:22:26.916Z,0.00
2018-12-11T06:23:26.904Z,0.00
2018-12-11T06:24:26.894Z,0.00
2018-12-11T06:25:26.882Z,0.00
2018-12-11T06:26:26.870Z,0.00
2018-12-11T06:27:26.860Z,0.00
2018-12-11T06:28:26.849Z,0.00
2018-12-11T06:29:26.841Z,0.00
2018-12-11T06:30:26.828Z,0.00
2018-12-11T06:31:26.819Z,4.00
2018-12-11T06:32:26.808Z,4.00
2018-12-11T06:33:26.796Z,0.00
2018-12-11T06:34:26.784Z,0.00
2018-12-11T06:35:26.775Z,4.00
2018-12-11T06:36:26.766Z,4.00
2018-12-11T06:37:26.753Z,0.00
2018-12-11T06:38:26.746Z,4.00
2018-12-11T06:39:26.731Z,4.00
2018-12-11T06:40:26.723Z,8.00
2018-12-11T06:41:26.709Z,8.00
2018-12-11T06:42:26.698Z,8.00
2018-12-11T06:43:26.689Z,12.00
2018-12-11T06:44:26.679Z,16.00
2018-12-11T06:45:26.820Z,16.00
2018-12-11T06:46:26.658Z,16.00
2018-12-11T06:47:26.647Z,20.00
2018-12-11T06:48:26.634Z,20.00
2018-12-11T06:49:26.626Z,28.00
2018-12-11T06:50:26.614Z,32.00
2018-12-11T06:51:26.604Z,32.00
2018-12-11T06:52:26.592Z,40.00
2018-12-11T06:53:26.581Z,40.00
2018-12-11T06:54:26.572Z,44.00
2018-12-11T06:55:26.559Z,40.00
2018-12-11T06:56:26.551Z,36.00
2018-12-11T06:57:26.540Z,40.00
2018-12-11T06:58:26.531Z,44.00
2018-12-11T06:59:26.520Z,48.00
2018-12-11T07:00:26.507Z,60.00
2018-12-11T07:01:26.502Z,64.00
2018-12-11T07:02:26.487Z,64.00
2018-12-11T07:03:26.475Z,60.00
2018-12-11T07:04:26.503Z,56.00
2018-12-11T07:05:26.454Z,60.00
2018-12-11T07:06:26.448Z,72.00
2018-12-11T07:07:26.432Z,64.00
2018-12-11T07:08:26.423Z,72.00
2018-12-11T07:09:26.411Z,76.00
2018-12-11T07:10:26.401Z,104.00
2018-12-11T07:11:26.389Z,100.00
2018-12-11T07:12:26.379Z,80.00
2018-12-11T07:13:26.369Z,88.00
2018-12-11T07:14:26.357Z,84.00
2018-12-11T07:15:26.346Z,92.00
2018-12-11T07:16:26.336Z,116.00
2018-12-11T07:17:26.325Z,132.00
2018-12-11T07:18:26.317Z,172.00
2018-12-11T07:19:26.307Z,224.00
2018-12-11T07:20:26.293Z,236.00
2018-12-11T07:21:26.352Z,272.00
2018-12-11T07:22:26.273Z,236.00
2018-12-11T07:23:26.261Z,312.00
2018-12-11T07:24:26.250Z,304.00
2018-12-11T07:25:26.240Z,292.00
2018-12-11T07:26:26.228Z,280.00
2018-12-11T07:27:26.220Z,300.00
2018-12-11T07:28:26.207Z,372.00
2018-12-11T07:29:26.200Z,368.00
2018-12-11T07:30:26.185Z,392.00
2018-12-11T07:31:26.181Z,352.00
2018-12-11T07:32:26.167Z,372.00
2018-12-11T07:33:26.156Z,336.00
2018-12-11T07:34:26.147Z,300.00
2018-12-11T07:35:26.139Z,340.00
2018-12-11T07:36:26.124Z,432.00
2018-12-11T07:37:26.113Z,464.00
2018-12-11T07:38:26.102Z,432.00
2018-12-11T07:39:26.091Z,532.00
2018-12-11T07:40:26.083Z,564.00
2018-12-11T07:41:26.076Z,468.00
2018-12-11T07:42:26.060Z,340.00
2018-12-11T07:43:26.048Z,264.00
2018-12-11T07:44:26.036Z,312.00
2018-12-11T07:45:26.029Z,412.00
2018-12-11T07:46:26.016Z,456.00
2018-12-11T07:47:26.006Z,560.00
2018-12-11T07:48:25.994Z,632.00
2018-12-11T07:49:26.012Z,608.00
2018-12-11T07:50:25.972Z,632.00
2018-12-11T07:51:25.961Z,732.00
2018-12-11T07:52:25.950Z,852.00
2018-12-11T07:53:25.940Z,936.00
2018-12-11T07:54:25.930Z,968.00
2018-12-11T07:55:25.918Z,976.00
2018-12-11T07:56:25.907Z,956.00
2018-12-11T07:57:25.898Z,884.00
2018-12-11T07:58:25.886Z,772.00
2018-12-11T07:59:25.875Z,732.00
2018-12-11T08:00:25.866Z,688.00
2018-12-11T08:01:25.854Z,636.00
2018-12-11T08:02:25.845Z,588.00
2018-12-11T08:03:25.834Z,516.00
2018-12-11T08:04:25.822Z,556.00
2018-12-11T08:05:25.812Z,592.00
2018-12-11T08:06:25.801Z,672.00
2018-12-11T08:07:25.792Z,772.00
2018-12-11T08:08:25.779Z,844.00
2018-12-11T08:09:25.769Z,924.00
2018-12-11T08:10:25.759Z,1000.00
2018-12-11T08:11:25.750Z,1044.00
2018-12-11T08:12:25.736Z,992.00
2018-12-11T08:13:25.725Z,896.00
2018-12-11T08:14:25.715Z,900.00
2018-12-11T08:15:25.704Z,900.00
2018-12-11T08:16:25.703Z,932.00
2018-12-11T08:17:25.687Z,1028.00
2018-12-11T08:18:25.672Z,1116.00
2018-12-11T08:19:25.662Z,1192.00
2018-12-11T08:20:25.653Z,1212.00
2018-12-11T08:21:25.640Z,1164.00
2018-12-11T08:22:25.629Z,1100.00
2018-12-11T08:23:25.618Z,1128.00
2018-12-11T08:24:25.608Z,1148.00
2018-12-11T08:25:25.597Z,1076.00
2018-12-11T08:26:25.586Z,908.00
2018-12-11T08:27:25.577Z,756.00
2018-12-11T08:28:25.565Z,668.00
2018-12-11T08:29:25.554Z,648.00
2018-12-11T08:30:25.543Z,804.00
2018-12-11T08:31:25.533Z,924.00
2018-12-11T08:32:25.909Z,1048.00
2018-12-11T08:33:25.513Z,1028.00
2018-12-11T08:34:25.505Z,1168.00
2018-12-11T08:35:25.497Z,1228.00
2018-12-11T08:36:25.479Z,1812.00
2018-12-11T08:37:25.468Z,2456.00
2018-12-11T08:38:25.459Z,2620.00
2018-12-11T08:39:25.451Z,2348.00
2018-12-11T08:40:25.437Z,2028.00
2018-12-11T08:41:25.426Z,1588.00
2018-12-11T08:42:25.416Z,1296.00
2018-12-11T08:43:25.405Z,1324.00
2018-12-11T08:44:25.397Z,1520.00
2018-12-11T08:45:25.383Z,1876.00
2018-12-11T08:46:25.373Z,2232.00
2018-12-11T08:47:25.363Z,2204.00
2018-12-11T08:48:25.354Z,2460.00
2018-12-11T08:49:25.341Z,2280.00
2018-12-11T08:50:25.332Z,2112.00
2018-12-11T08:51:25.320Z,1980.00
2018-12-11T08:52:25.309Z,1788.00
2018-12-11T08:53:25.298Z,1932.00
2018-12-11T08:54:25.289Z,2080.00
2018-12-11T08:55:25.278Z,2268.00
2018-12-11T08:56:25.266Z,2652.00
2018-12-11T08:57:25.256Z,2960.00
2018-12-11T08:58:25.247Z,3096.00
2018-12-11T08:59:25.234Z,3024.00
2018-12-11T09:00:25.224Z,2596.00
2018-12-11T09:01:25.213Z,2128.00
2018-12-11T09:02:25.202Z,2252.00
2018-12-11T09:03:25.194Z,2328.00
2018-12-11T09:04:25.182Z,2356.00
2018-12-11T09:05:25.169Z,2444.00
2018-12-11T09:06:25.159Z,2324.00
2018-12-11T09:07:25.148Z,2004.00
2018-12-11T09:08:25.138Z,2268.00
2018-12-11T09:09:25.127Z,2104.00
2018-12-11T09:10:25.116Z,1924.00
2018-12-11T09:11:25.105Z,1900.00
2018-12-11T09:12:25.095Z,1872.00
2018-12-11T09:13:25.084Z,1900.00
2018-12-11T09:14:25.079Z,1792.00
2018-12-11T09:15:25.063Z,2120.00
2018-12-11T09:16:25.052Z,2296.00
2018-12-11T09:17:25.041Z,2152.00
2018-12-11T09:18:25.031Z,2208.00
2018-12-11T09:19:25.027Z,2284.00
2018-12-11T09:20:25.010Z,2172.00
2018-12-11T09:21:24.999Z,2096.00
2018-12-11T09:22:24.988Z,2080.00
2018-12-11T09:23:24.977Z,2120.00
2018-12-11T09:24:24.966Z,2188.00
2018-12-11T09:25:24.962Z,2184.00
2018-12-11T09:26:24.948Z,2128.00
2018-12-11T09:27:24.935Z,2084.00
2018-12-11T09:28:24.926Z,2036.00
2018-12-11T09:29:24.914Z,2064.00
2018-12-11T09:30:24.903Z,2100.00
2018-12-11T09:31:24.893Z,2024.00
2018-12-11T09:32:24.882Z,2020.00
2018-12-11T09:33:24.875Z,2068.00
2018-12-11T09:34:24.861Z,2056.00
2018-12-11T09:35:24.853Z,2172.00
2018-12-11T09:36:24.839Z,2228.00
2018-12-11T09:37:24.829Z,2140.00
2018-12-11T09:38:24.818Z,2016.00
2018-12-11T09:39:24.808Z,1980.00
2018-12-11T09:40:24.796Z,1976.00
2018-12-11T09:41:24.787Z,2024.00
2018-12-11T09:42:27.961Z,2108.00
2018-12-11T09:43:24.766Z,2144.00
2018-12-11T09:44:24.755Z,1992.00
2018-12-11T09:45:24.745Z,1960.00
2018-12-11T09:46:24.734Z,1964.00
2018-12-11T09:47:24.720Z,1976.00
2018-12-11T09:48:24.719Z,2056.00
2018-12-11T09:49:24.703Z,2256.00
2018-12-11T09:50:24.689Z,2412.00
2018-12-11T09:51:24.682Z,2512.00
2018-12-11T09:52:24.668Z,2444.00
2018-12-11T09:53:24.658Z,2340.00
2018-12-11T09:54:24.645Z,2332.00
2018-12-11T09:55:24.635Z,2452.00
2018-12-11T09:56:24.646Z,2400.00
2018-12-11T09:57:24.615Z,2368.00
2018-12-11T09:58:24.603Z,2384.00
2018-12-11T09:59:24.597Z,2336.00
2018-12-11T10:00:27.290Z,2364.00
2018-12-11T10:01:24.570Z,2388.00
2018-12-11T10:02:24.562Z,2392.00
2018-12-11T10:03:24.550Z,2320.00
2018-12-11T10:04:24.539Z,2016.00
2018-12-11T10:05:24.527Z,1912.00
2018-12-11T10:06:24.518Z,1992.00
2018-12-11T10:07:24.509Z,2224.00
2018-12-11T10:08:24.496Z,2300.00
2018-12-11T10:09:24.491Z,2228.00
2018-12-11T10:10:24.476Z,2132.00
2018-12-11T10:11:24.471Z,2080.00
2018-12-11T10:12:24.454Z,2012.00
2018-12-11T10:13:24.442Z,1872.00
2018-12-11T10:14:24.435Z,1836.00
2018-12-11T10:15:24.423Z,1828.00
2018-12-11T10:16:24.411Z,1712.00
2018-12-11T10:17:24.400Z,1772.00
2018-12-11T10:18:24.391Z,1752.00
2018-12-11T10:19:24.380Z,1840.00
2018-12-11T10:20:24.369Z,1940.00
2018-12-11T10:21:24.359Z,2012.00
2018-12-11T10:22:24.347Z,2000.00
2018-12-11T10:23:24.337Z,2032.00
2018-12-11T10:24:24.328Z,1984.00
2018-12-11T10:25:24.313Z,2064.00
2018-12-11T10:26:24.304Z,2148.00
2018-12-11T10:27:24.294Z,2012.00
2018-12-11T10:28:24.285Z,1896.00
2018-12-11T10:29:24.273Z,1832.00
2018-12-11T10:30:24.261Z,1952.00
2018-12-11T10:31:24.250Z,2036.00
2018-12-11T10:32:24.241Z,2108.00
2018-12-11T10:33:24.228Z,2180.00
2018-12-11T10:34:24.218Z,2188.00
2018-12-11T10:35:24.206Z,2132.00
2018-12-11T10:36:24.199Z,2048.00
2018-12-11T10:37:24.186Z,2088.00
2018-12-11T10:38:24.175Z,2104.00
2018-12-11T10:39:24.166Z,2092.00
2018-12-11T10:40:24.157Z,2028.00
2018-12-11T10:41:24.149Z,1944.00
2018-12-11T10:42:24.134Z,1784.00
2018-12-11T10:43:24.122Z,1704.00
2018-12-11T10:44:24.112Z,1872.00
2018-12-11T10:45:24.102Z,1940.00
2018-12-11T10:46:24.090Z,2248.00
2018-12-11T10:47:24.079Z,2528.00
2018-12-11T10:48:24.068Z,2596.00
2018-12-11T10:49:24.060Z,2672.00
2018-12-11T10:50:24.051Z,2656.00
2018-12-11T10:51:24.036Z,2632.00
2018-12-11T10:52:24.027Z,2572.00
2018-12-11T10:53:24.015Z,2472.00
2018-12-11T10:54:24.007Z,2424.00
2018-12-11T10:55:23.996Z,2368.00
2018-12-11T10:56:23.982Z,2408.00
2018-12-11T10:57:23.978Z,2404.00
2018-12-11T10:58:23.961Z,2260.00
2018-12-11T10:59:23.954Z,2164.00
2018-12-11T11:00:23.939Z,2036.00
2018-12-11T11:01:23.931Z,1928.00
2018-12-11T11:02:23.918Z,1756.00
2018-12-11T11:03:23.908Z,1904.00
2018-12-11T11:04:23.898Z,1992.00
2018-12-11T11:05:23.887Z,1988.00
2018-12-11T11:06:23.884Z,1848.00
2018-12-11T11:07:23.864Z,1928.00
2018-12-11T11:08:23.855Z,1840.00
2018-12-11T11:09:23.845Z,1656.00
2018-12-11T11:10:23.840Z,1532.00
2018-12-11T11:11:23.822Z,1792.00
2018-12-11T11:12:23.835Z,2132.00
2018-12-11T11:13:23.819Z,2088.00
2018-12-11T11:14:25.168Z,1920.00
2018-12-11T11:15:23.795Z,1916.00
2018-12-11T11:16:23.768Z,2004.00
2018-12-11T11:17:23.758Z,1820.00
2018-12-11T11:18:23.747Z,1588.00
2018-12-11T11:19:23.736Z,1648.00
2018-12-11T11:20:23.726Z,1860.00
2018-12-11T11:21:23.714Z,1884.00
2018-12-11T11:22:23.706Z,1844.00
2018-12-11T11:23:23.694Z,1692.00
2018-12-11T11:24:23.685Z,1628.00
2018-12-11T11:25:23.673Z,1536.00
2018-12-11T11:26:23.662Z,1516.00
2018-12-11T11:27:23.656Z,1524.00
2018-12-11T11:28:23.641Z,1644.00
2018-12-11T11:29:23.630Z,1840.00
2018-12-11T11:30:23.623Z,2136.00
2018-12-11T11:31:23.608Z,2152.00
2018-12-11T11:32:23.599Z,1960.00
2018-12-11T11:33:23.594Z,2044.00
2018-12-11T11:34:23.581Z,2148.00
2018-12-11T11:35:23.567Z,2152.00
2018-12-11T11:36:23.556Z,2200.00
2018-12-11T11:37:23.545Z,2248.00
2018-12-11T11:38:23.538Z,2176.00
2018-12-11T11:39:23.523Z,2104.00
2018-12-11T11:40:23.511Z,2100.00
2018-12-11T11:41:23.502Z,2144.00
2018-12-11T11:42:23.490Z,2156.00
2018-12-11T11:43:23.479Z,2112.00
2018-12-11T11:44:23.470Z,2044.00
2018-12-11T11:45:23.459Z,2124.00
2018-12-11T11:46:23.448Z,2036.00
2018-12-11T11:47:23.438Z,2164.00
2018-12-11T11:48:23.426Z,2252.00
2018-12-11T11:49:23.416Z,2312.00
2018-12-11T11:50:23.406Z,2220.00
2018-12-11T11:51:23.394Z,2048.00
2018-12-11T11:52:23.385Z,1932.00
2018-12-11T11:53:23.377Z,1888.00
2018-12-11T11:54:23.363Z,1860.00
2018-12-11T11:55:23.353Z,1844.00
2018-12-11T11:56:23.343Z,1776.00
2018-12-11T11:57:29.572Z,1720.00
2018-12-11T11:58:24.319Z,1672.00
2018-12-11T11:59:23.309Z,1784.00
2018-12-11T12:00:23.298Z,1884.00
2018-12-11T12:01:23.292Z,1968.00
2018-12-11T12:02:23.278Z,1976.00
2018-12-11T12:03:23.270Z,1968.00
2018-12-11T12:04:23.260Z,2132.00
2018-12-11T12:05:23.246Z,2216.00
2018-12-11T12:06:23.236Z,2180.00
2018-12-11T12:07:23.224Z,1976.00
2018-12-11T12:08:23.213Z,1888.00
2018-12-11T12:09:23.205Z,1876.00
2018-12-11T12:10:23.192Z,1652.00
2018-12-11T12:11:23.182Z,1572.00
2018-12-11T12:12:23.169Z,1704.00
2018-12-11T12:13:23.160Z,1836.00
2018-12-11T12:14:23.149Z,1816.00
2018-12-11T12:15:23.140Z,1848.00
2018-12-11T12:16:23.128Z,1888.00
2018-12-11T12:17:23.117Z,1784.00
2018-12-11T12:18:23.106Z,1708.00
2018-12-11T12:19:23.099Z,1728.00
2018-12-11T12:20:23.085Z,1676.00
2018-12-11T12:21:23.075Z,1640.00
2018-12-11T12:22:23.063Z,1608.00
2018-12-11T12:23:23.053Z,1512.00
2018-12-11T12:24:23.041Z,1404.00
2018-12-11T12:25:23.031Z,1400.00
2018-12-11T12:26:23.021Z,1360.00
2018-12-11T12:27:23.011Z,1288.00
2018-12-11T12:28:22.999Z,1260.00
2018-12-11T12:29:22.991Z,1272.00
2018-12-11T12:30:22.982Z,1224.00
2018-12-11T12:31:22.967Z,1260.00
2018-12-11T12:32:22.956Z,1352.00
2018-12-11T12:33:22.945Z,1312.00
2018-12-11T12:34:22.937Z,1272.00
2018-12-11T12:35:22.927Z,1244.00
2018-12-11T12:36:22.914Z,1144.00
2018-12-11T12:37:22.905Z,1148.00
2018-12-11T12:38:22.895Z,1252.00
2018-12-11T12:39:22.883Z,1128.00
2018-12-11T12:40:22.871Z,1000.00
2018-12-11T12:41:22.861Z,992.00
2018-12-11T12:42:22.851Z,996.00
2018-12-11T12:43:22.841Z,996.00
2018-12-11T12:44:22.835Z,1052.00
2018-12-11T12:45:22.819Z,1080.00
2018-12-11T12:46:22.808Z,1080.00